createdAt,value
2023-05-03T00:01:37.500Z,3.10
2023-05-03T00:06:41.393Z,3.30
2023-05-03T00:11:45.985Z,3.20
2023-05-03T00:16:49.272Z,2.10
2023-05-03T00:21:52.460Z,2.37
2023-05-03T00:26:57.027Z,2.60
2023-05-03T00:32:00.747Z,2.80
2023-05-03T00:37:04.108Z,3.23
2023-05-03T00:42:08.701Z,3.03
2023-05-03T00:47:12.224Z,3.63
2023-05-03T00:52:16.494Z,3.20
2023-05-03T00:57:22.846Z,3.40
2023-05-03T01:02:26.158Z,3.00
2023-05-03T01:07:39.312Z,2.80
2023-05-03T01:12:54.419Z,2.90
2023-05-03T01:18:01.776Z,3.10
2023-05-03T01:23:12.380Z,2.90
2023-05-03T01:28:16.862Z,2.20
2023-05-03T01:33:27.428Z,4.03
2023-05-03T01:38:34.362Z,4.33
2023-05-03T01:43:39.971Z,3.53
2023-05-03T01:48:43.107Z,4.20
2023-05-03T01:53:46.254Z,4.43
2023-05-03T01:58:50.820Z,4.57
2023-05-03T02:03:54.062Z,4.93
2023-05-03T02:08:57.548Z,5.17
2023-05-03T02:14:02.051Z,4.60
2023-05-03T02:19:05.573Z,3.63
2023-05-03T02:24:08.884Z,3.00
2023-05-03T02:29:13.342Z,3.27
2023-05-03T02:34:16.410Z,3.13
2023-05-03T02:39:19.487Z,3.10
2023-05-03T02:44:23.934Z,3.37
2023-05-03T02:49:26.981Z,3.00
2023-05-03T02:54:30.049Z,2.93
2023-05-03T02:59:34.494Z,3.67
2023-05-03T03:04:37.562Z,3.80
2023-05-03T03:09:40.618Z,2.90
2023-05-03T03:14:45.772Z,3.40
2023-05-03T03:19:48.857Z,2.63
2023-05-03T03:24:51.941Z,3.73
2023-05-03T03:29:56.512Z,2.63
2023-05-03T03:34:59.575Z,3.10
2023-05-03T03:40:02.879Z,2.50
2023-05-03T03:45:08.590Z,2.40
2023-05-03T03:50:12.420Z,2.67
2023-05-03T03:55:15.621Z,2.43
2023-05-03T04:00:20.232Z,2.20
2023-05-03T04:05:23.912Z,3.40
2023-05-03T04:10:27.113Z,2.80
2023-05-03T04:15:31.595Z,5.03
2023-05-03T04:20:34.820Z,5.10
2023-05-03T04:25:38.831Z,5.90
2023-05-03T04:30:45.134Z,6.20
2023-05-03T04:35:51.282Z,4.77
2023-05-03T04:40:54.440Z,4.20
2023-05-03T04:45:59.121Z,3.70
2023-05-03T04:51:02.247Z,3.53
2023-05-03T04:56:06.003Z,3.20
2023-05-03T05:01:10.755Z,3.83
2023-05-03T05:06:13.906Z,4.60
2023-05-03T05:11:17.251Z,5.63
2023-05-03T05:16:22.351Z,7.50
2023-05-03T05:21:25.689Z,4.60
2023-05-03T05:26:29.189Z,4.80
2023-05-03T05:31:35.095Z,4.37
2023-05-03T05:36:38.494Z,4.80
2023-05-03T05:41:41.633Z,4.80
2023-05-03T05:46:49.497Z,5.13
2023-05-03T05:51:52.682Z,5.10
2023-05-03T05:56:55.857Z,5.20
2023-05-03T06:02:00.464Z,5.17
2023-05-03T06:07:03.671Z,5.33
2023-05-03T06:12:07.129Z,6.90
2023-05-03T06:17:11.675Z,7.37
2023-05-03T06:22:14.794Z,8.00
2023-05-03T06:27:17.907Z,7.33
2023-05-03T06:32:23.443Z,7.73
2023-05-03T06:37:27.411Z,7.80
2023-05-03T06:42:30.876Z,7.17
2023-05-03T06:47:37.233Z,7.37
2023-05-03T06:52:41.311Z,8.07
2023-05-03T06:57:44.623Z,7.47
2023-05-03T07:02:49.320Z,7.50
2023-05-03T07:07:52.524Z,8.60
2023-05-03T07:12:55.595Z,8.07
2023-05-03T07:18:00.292Z,8.60
2023-05-03T07:23:03.677Z,8.27
2023-05-03T07:28:06.888Z,9.30
2023-05-03T07:33:11.484Z,9.17
2023-05-03T07:38:14.649Z,8.77
2023-05-03T07:43:19.664Z,8.30
2023-05-03T07:48:24.130Z,8.73
2023-05-03T07:53:27.229Z,8.73
2023-05-03T07:58:39.938Z,8.43
2023-05-03T08:03:45.386Z,9.30
2023-05-03T08:08:48.674Z,8.87
2023-05-03T08:13:51.750Z,8.30
2023-05-03T08:18:56.225Z,8.97
2023-05-03T08:23:59.330Z,9.30
2023-05-03T08:29:03.604Z,9.23
2023-05-03T08:34:10.428Z,9.00
2023-05-03T08:39:15.305Z,9.53
2023-05-03T08:44:23.341Z,9.13
2023-05-03T08:49:29.545Z,9.00
2023-05-03T08:54:32.714Z,8.43
2023-05-03T08:59:35.777Z,8.47
2023-05-03T09:04:40.220Z,9.50
2023-05-03T09:09:46.873Z,9.80
2023-05-03T09:14:50.797Z,8.87
2023-05-03T09:19:57.008Z,8.73
2023-05-03T09:25:01.070Z,8.90
2023-05-03T09:30:19.756Z,9.23
2023-05-03T09:35:24.342Z,8.90
2023-05-03T09:40:27.890Z,8.30
2023-05-03T09:45:31.525Z,8.53
2023-05-03T09:50:37.490Z,7.90
2023-05-03T09:55:41.932Z,8.10
2023-05-03T10:00:46.592Z,7.53
2023-05-03T10:05:52.781Z,7.20
2023-05-03T10:10:55.982Z,6.30
2023-05-03T10:16:06.477Z,6.97
2023-05-03T10:21:17.530Z,7.27
2023-05-03T10:26:22.513Z,7.60
2023-05-03T10:31:50.696Z,7.47
2023-05-03T10:36:55.492Z,7.27
2023-05-03T10:42:00.284Z,6.90
2023-05-03T10:47:12.392Z,6.57
2023-05-03T10:52:48.480Z,6.50
2023-05-03T10:57:55.096Z,6.30
2023-05-03T11:03:27.860Z,6.17
2023-05-03T11:08:37.721Z,5.73
2023-05-03T11:13:40.958Z,6.33
2023-05-03T11:18:44.090Z,6.13
2023-05-03T11:23:48.610Z,6.20
2023-05-03T11:28:51.687Z,6.03
2023-05-03T11:33:55.067Z,6.03
2023-05-03T11:38:59.527Z,5.97
2023-05-03T11:44:15.406Z,5.47
2023-05-03T11:49:20.375Z,5.87
2023-05-03T11:54:27.478Z,4.83
2023-05-03T11:59:38.792Z,4.97
2023-05-03T12:04:44.757Z,5.37
2023-05-03T12:10:00.626Z,5.27
2023-05-03T12:15:11.688Z,5.10
2023-05-03T12:21:04.346Z,5.03
2023-05-03T12:25:44.351Z,5.47
2023-05-03T12:30:48.461Z,4.77
2023-05-03T12:35:54.206Z,4.90
2023-05-03T12:40:59.846Z,4.03
2023-05-03T12:46:25.760Z,4.07
2023-05-03T12:51:28.278Z,4.13
2023-05-03T12:56:39.394Z,4.17
2023-05-03T13:06:57.803Z,4.00
2023-05-03T13:12:03.838Z,4.40
2023-05-03T13:17:07.599Z,4.20
2023-05-03T13:22:11.403Z,4.00
2023-05-03T13:27:16.663Z,3.63
2023-05-03T13:32:19.844Z,3.60
2023-05-03T13:37:22.983Z,3.67
2023-05-03T13:42:27.449Z,3.70
2023-05-03T13:47:47.287Z,3.20
2023-05-03T13:52:55.594Z,3.03
2023-05-03T13:58:00.070Z,3.50
2023-05-03T14:03:03.329Z,3.00
2023-05-03T14:08:06.930Z,3.10
2023-05-03T14:13:11.536Z,3.30
2023-05-03T14:18:14.866Z,3.13
2023-05-03T14:23:18.118Z,3.93
2023-05-03T14:28:22.592Z,3.77
2023-05-03T14:33:26.040Z,3.23
2023-05-03T14:38:29.604Z,3.37
2023-05-03T14:43:34.083Z,3.20
2023-05-03T14:48:38.154Z,3.40
2023-05-03T14:53:41.586Z,3.20
2023-05-03T14:58:46.085Z,3.30
2023-05-03T15:03:49.185Z,2.93
2023-05-03T15:08:52.540Z,3.23
2023-05-03T15:13:57.083Z,2.80
2023-05-03T15:19:01.617Z,3.40
2023-05-03T15:24:04.962Z,2.80
2023-05-03T15:29:09.728Z,2.63
2023-05-03T15:34:12.938Z,2.90
2023-05-03T15:39:16.018Z,2.70
2023-05-03T15:44:20.478Z,3.33
2023-05-03T15:49:23.667Z,2.90
2023-05-03T15:54:27.232Z,3.23
2023-05-03T15:59:32.223Z,2.73
2023-05-03T16:04:37.227Z,2.77
2023-05-03T16:09:40.414Z,3.00
2023-05-03T16:14:44.953Z,2.90
2023-05-03T16:19:48.026Z,2.97
2023-05-03T16:24:51.297Z,2.77
2023-05-03T16:29:55.829Z,3.17
2023-05-03T16:34:58.912Z,2.73
2023-05-03T16:40:05.480Z,2.80
2023-05-03T16:45:11.043Z,2.90
2023-05-03T16:50:14.412Z,2.73
2023-05-03T16:55:22.725Z,2.70
2023-05-03T17:00:27.562Z,2.63
2023-05-03T17:05:33.240Z,2.70
2023-05-03T17:10:38.600Z,2.43
2023-05-03T17:15:43.078Z,2.70
2023-05-03T17:20:46.350Z,2.57
2023-05-03T17:25:49.491Z,3.60
2023-05-03T17:30:55.054Z,3.67
2023-05-03T17:36:00.610Z,3.20
2023-05-03T17:41:07.766Z,3.17
2023-05-03T17:46:14.649Z,3.20
2023-05-03T17:51:18.089Z,3.10
2023-05-03T17:56:21.364Z,3.43
2023-05-03T18:01:26.343Z,2.90
2023-05-03T18:06:29.691Z,3.43
2023-05-03T18:11:33.085Z,3.80
2023-05-03T18:16:37.911Z,3.40
2023-05-03T18:21:41.058Z,3.17
2023-05-03T18:26:44.309Z,3.27
2023-05-03T18:31:49.307Z,3.37
2023-05-03T18:36:52.450Z,2.90
2023-05-03T18:41:56.015Z,2.90
2023-05-03T18:47:00.671Z,3.30
2023-05-03T18:52:05.331Z,2.60
2023-05-03T18:57:08.518Z,2.70
2023-05-03T19:02:14.409Z,2.57
2023-05-03T19:07:17.556Z,2.90
2023-05-03T19:12:20.636Z,3.70
2023-05-03T19:17:25.240Z,3.70
2023-05-03T19:22:28.366Z,3.73
2023-05-03T19:27:31.483Z,3.27
2023-05-03T19:32:39.077Z,3.90
2023-05-03T19:37:43.660Z,4.00
2023-05-03T19:42:46.876Z,3.70
2023-05-03T19:47:51.380Z,3.80
2023-05-03T19:52:54.678Z,3.00
2023-05-03T19:57:57.805Z,3.70
2023-05-03T20:03:02.674Z,4.10
2023-05-03T20:08:06.208Z,3.93
2023-05-03T20:13:09.665Z,4.30
2023-05-03T20:18:14.169Z,3.90
2023-05-03T20:23:17.360Z,4.00
2023-05-03T20:28:20.539Z,3.60
2023-05-03T20:33:25.112Z,4.07
2023-05-03T20:38:28.291Z,4.80
2023-05-03T20:43:31.383Z,4.53
2023-05-03T20:48:36.026Z,4.40
2023-05-03T20:53:39.211Z,4.03
2023-05-03T20:58:42.354Z,4.00
2023-05-03T21:03:46.867Z,5.20
2023-05-03T21:08:50.102Z,5.53
2023-05-03T21:13:53.203Z,4.67
2023-05-03T21:18:57.692Z,5.00
2023-05-03T21:24:00.857Z,5.23
2023-05-03T21:29:03.988Z,5.43
2023-05-03T21:34:08.567Z,4.70
2023-05-03T21:39:12.133Z,4.03
2023-05-03T21:44:15.729Z,4.30
2023-05-03T21:49:20.319Z,4.13
2023-05-03T21:54:23.526Z,5.23
2023-05-03T21:59:26.707Z,4.30
2023-05-03T22:04:31.468Z,4.60
2023-05-03T22:09:34.715Z,4.70
2023-05-03T22:14:37.784Z,4.90
2023-05-03T22:19:42.257Z,4.17
2023-05-03T22:24:45.352Z,4.37
2023-05-03T22:29:48.439Z,4.60
2023-05-03T22:34:52.980Z,3.90
2023-05-03T22:39:56.074Z,4.83
2023-05-03T22:44:59.202Z,3.60
2023-05-03T22:50:03.921Z,4.30
2023-05-03T22:55:08.567Z,3.83
2023-05-03T23:00:12.558Z,4.50
2023-05-03T23:05:17.027Z,3.93
2023-05-03T23:10:20.253Z,4.33
2023-05-03T23:15:23.399Z,4.37
2023-05-03T23:20:28.034Z,4.20
2023-05-03T23:25:31.315Z,4.90
2023-05-03T23:30:34.469Z,3.50
2023-05-03T23:35:39.450Z,4.37
2023-05-03T23:40:42.606Z,4.20
2023-05-03T23:45:45.689Z,3.60
2023-05-03T23:50:50.254Z,4.70
2023-05-03T23:55:53.359Z,3.63
